Time;durP1;ratioP1;P1;durP2;ratioP2;P2;SDS_P1;SDS_P2;PMS_P1;PMS_P2;Temp;Humidity;BMP_temperature;BMP_pressure;BME280_temperature;BME280_humidity;BME280_pressure;Samples;Min_cycle;Max_cycle;Signal;HPM_P1;HPM_P2
2022/03/01 00:02:20;;;;;;;36.28;18.10;;;;;;;;;;5052656;28;20473;-76
2022/03/01 00:04:46;;;;;;;35.63;19.27;;;;;;;;;;5052433;28;20074;-77
2022/03/01 00:07:12;;;;;;;36.25;18.98;;;;;;;;;;5052055;28;20037;-77
2022/03/01 00:09:39;;;;;;;35.05;19.02;;;;;;;;;;5052811;28;20550;-77
2022/03/01 00:12:05;;;;;;;38.83;19.27;;;;;;;;;;5034814;28;20131;-76
2022/03/01 00:14:31;;;;;;;34.38;18.85;;;;;;;;;;5052184;28;20028;-76
2022/03/01 00:16:57;;;;;;;37.55;19.33;;;;;;;;;;5051185;28;20025;-77
2022/03/01 00:19:23;;;;;;;37.15;19.15;;;;;;;;;;5050283;28;20033;-77
2022/03/01 00:21:49;;;;;;;33.90;18.52;;;;;;;;;;5050728;28;20029;-77
2022/03/01 00:24:15;;;;;;;36.08;19.15;;;;;;;;;;5032237;28;20063;-77
2022/03/01 00:26:41;;;;;;;46.75;21.20;;;;;;;;;;5050177;28;20090;-77
2022/03/01 00:29:07;;;;;;;37.53;19.55;;;;;;;;;;5050472;28;20108;-77
2022/03/01 00:31:35;;;;;;;34.97;20.45;;;;;;;;;;5032784;28;20376;-77
2022/03/01 00:34:01;;;;;;;37.30;19.35;;;;;;;;;;5050631;28;20049;-76
2022/03/01 00:36:27;;;;;;;35.47;19.08;;;;;;;;;;5050514;28;20029;-76
2022/03/01 00:38:53;;;;;;;35.58;19.63;;;;;;;;;;5034150;28;20054;-77
2022/03/01 00:41:19;;;;;;;45.50;21.73;;;;;;;;;;5053020;28;20062;-78
2022/03/01 00:43:46;;;;;;;38.30;20.55;;;;;;;;;;5052251;28;20464;-78
2022/03/01 00:46:12;;;;;;;37.25;19.70;;;;;;;;;;5053014;28;20021;-77
2022/03/01 00:48:38;;;;;;;35.03;19.20;;;;;;;;;;5052090;28;20075;-77
2022/03/01 00:51:04;;;;;;;43.80;20.35;;;;;;;;;;5034855;28;20025;-77
2022/03/01 00:53:30;;;;;;;35.95;19.98;;;;;;;;;;5053201;28;20021;-76
2022/03/01 00:55:57;;;;;;;37.05;20.10;;;;;;;;;;5035475;28;20064;-76
2022/03/01 00:58:23;;;;;;;36.08;20.05;;;;;;;;;;5056529;28;20028;-77
2022/03/01 01:00:49;;;;;;;39.83;19.67;;;;;;;;;;5056010;28;20056;-78
2022/03/01 01:03:17;;;;;;;38.70;20.55;;;;;;;;;;5055636;28;20179;-78
2022/03/01 01:05:43;;;;;;;38.50;20.92;;;;;;;;;;5053569;28;20144;-77
2022/03/01 01:08:09;;;;;;;42.08;20.60;;;;;;;;;;5053495;28;20052;-76
2022/03/01 01:10:35;;;;;;;36.60;19.95;;;;;;;;;;5036241;28;20047;-78
2022/03/01 01:13:01;;;;;;;40.10;20.48;;;;;;;;;;5053468;28;20017;-76
2022/03/01 01:15:27;;;;;;;37.08;19.73;;;;;;;;;;5053332;28;20099;-77
2022/03/01 01:17:53;;;;;;;40.80;20.05;;;;;;;;;;5053404;28;20158;-77
2022/03/01 01:20:19;;;;;;;37.85;19.83;;;;;;;;;;5053227;28;20355;-77
2022/03/01 01:22:45;;;;;;;33.47;18.95;;;;;;;;;;5052788;28;20052;-78
2022/03/01 01:25:16;;;;;;;37.08;19.48;;;;;;;;;;5035852;28;20155;-77
2022/03/01 01:27:43;;;;;;;47.30;19.77;;;;;;;;;;5055452;28;20025;-77
2022/03/01 01:30:11;;;;;;;37.88;19.25;;;;;;;;;;5054443;28;20040;-76
2022/03/01 01:32:37;;;;;;;33.15;18.52;;;;;;;;;;5055194;28;20025;-76
2022/03/01 01:35:04;;;;;;;33.42;19.27;;;;;;;;;;5054909;28;20022;-76
2022/03/01 01:37:30;;;;;;;37.67;19.25;;;;;;;;;;5065234;28;20143;-76
2022/03/01 01:39:56;;;;;;;38.80;19.33;;;;;;;;;;5057932;28;20032;-75
2022/03/01 01:42:22;;;;;;;37.42;18.90;;;;;;;;;;5074355;28;20168;-76
2022/03/01 01:44:48;;;;;;;35.20;18.92;;;;;;;;;;5057392;28;20028;-76
2022/03/01 01:47:14;;;;;;;33.33;17.85;;;;;;;;;;5056643;28;20028;-76
2022/03/01 01:49:40;;;;;;;33.88;18.98;;;;;;;;;;5072464;28;20021;-78
2022/03/01 01:52:07;;;;;;;35.42;18.73;;;;;;;;;;5073032;28;20082;-77
2022/03/01 01:54:33;;;;;;;33.95;18.85;;;;;;;;;;5072689;28;20032;-76
2022/03/01 01:56:59;;;;;;;35.72;18.77;;;;;;;;;;5072820;28;20040;-77
2022/03/01 01:59:25;;;;;;;34.63;19.00;;;;;;;;;;5073077;28;20045;-77
2022/03/01 02:01:51;;;;;;;33.17;17.85;;;;;;;;;;5073179;28;20029;-77
2022/03/01 02:04:17;;;;;;;33.30;19.13;;;;;;;;;;5072626;28;20199;-77
2022/03/01 02:06:54;;;;;;;33.10;17.63;;;;;;;;;;5072028;28;20049;-77
2022/03/01 02:09:20;;;;;;;36.20;19.30;;;;;;;;;;5074452;28;20040;-76
2022/03/01 02:11:46;;;;;;;33.30;18.05;;;;;;;;;;5074598;28;20635;-77
2022/03/01 02:14:12;;;;;;;34.22;18.83;;;;;;;;;;5075405;28;20025;-78
2022/03/01 02:16:39;;;;;;;39.53;20.10;;;;;;;;;;5075046;28;20028;-77
2022/03/01 02:19:06;;;;;;;34.08;18.88;;;;;;;;;;5074398;28;20098;-77
2022/03/01 02:21:32;;;;;;;35.13;18.45;;;;;;;;;;5075276;28;20037;-77
2022/03/01 02:23:58;;;;;;;34.35;18.98;;;;;;;;;;5074344;28;20050;-77
2022/03/01 02:26:24;;;;;;;35.85;18.90;;;;;;;;;;5057101;28;20028;-77
2022/03/01 02:28:50;;;;;;;36.47;18.92;;;;;;;;;;5075574;28;20024;-77
2022/03/01 02:31:16;;;;;;;33.30;18.10;;;;;;;;;;5073216;28;20031;-79
2022/03/01 02:33:43;;;;;;;35.95;18.67;;;;;;;;;;5072609;28;20116;-77
2022/03/01 02:36:09;;;;;;;36.13;18.17;;;;;;;;;;5071998;28;20032;-77
2022/03/01 02:38:35;;;;;;;34.90;19.70;;;;;;;;;;5072084;28;20044;-77
2022/03/01 02:41:01;;;;;;;32.90;18.20;;;;;;;;;;5071960;28;20100;-77
2022/03/01 02:43:27;;;;;;;35.28;18.60;;;;;;;;;;5071912;28;20533;-76
2022/03/01 02:45:53;;;;;;;34.08;17.75;;;;;;;;;;5071807;28;20043;-76
2022/03/01 02:48:19;;;;;;;35.80;17.98;;;;;;;;;;5071971;28;20032;-77
2022/03/01 02:50:45;;;;;;;37.45;19.48;;;;;;;;;;5055226;28;20524;-77
2022/03/01 02:53:11;;;;;;;34.08;18.20;;;;;;;;;;5073490;28;20195;-76
2022/03/01 02:55:37;;;;;;;35.53;19.27;;;;;;;;;;5073993;28;20030;-76
2022/03/01 02:58:03;;;;;;;37.65;19.17;;;;;;;;;;5055398;28;20082;-77
2022/03/01 03:00:30;;;;;;;35.25;18.40;;;;;;;;;;5055942;28;20035;-77
2022/03/01 03:02:55;;;;;;;34.17;19.42;;;;;;;;;;5073972;28;20025;-76
2022/03/01 03:05:21;;;;;;;36.72;18.20;;;;;;;;;;5054842;28;20028;-76
2022/03/01 03:07:47;;;;;;;35.75;18.58;;;;;;;;;;5073816;28;20048;-76
2022/03/01 03:10:14;;;;;;;33.15;18.73;;;;;;;;;;5072946;28;20048;-77
2022/03/01 03:12:40;;;;;;;41.88;18.80;;;;;;;;;;5072986;28;20036;-77
2022/03/01 03:15:06;;;;;;;34.08;18.50;;;;;;;;;;5053208;28;20028;-75
2022/03/01 03:17:32;;;;;;;33.85;18.77;;;;;;;;;;5053309;28;20434;-75
2022/03/01 03:19:58;;;;;;;32.47;17.92;;;;;;;;;;5071129;28;20519;-76
2022/03/01 03:22:25;;;;;;;34.88;18.05;;;;;;;;;;5071123;28;20036;-76
2022/03/01 03:24:51;;;;;;;36.28;17.80;;;;;;;;;;5071510;28;20032;-75
2022/03/01 03:27:17;;;;;;;33.95;17.80;;;;;;;;;;5052975;28;20024;-75
2022/03/01 03:29:43;;;;;;;30.52;17.60;;;;;;;;;;5071651;28;20120;-76
2022/03/01 03:32:09;;;;;;;38.63;18.55;;;;;;;;;;5072349;28;20344;-77
2022/03/01 03:34:35;;;;;;;30.65;17.33;;;;;;;;;;5073479;28;20040;-76
2022/03/01 03:37:01;;;;;;;34.53;18.30;;;;;;;;;;5072912;28;20060;-76
2022/03/01 03:39:27;;;;;;;31.80;18.40;;;;;;;;;;5073115;28;20260;-77
2022/03/01 03:41:53;;;;;;;36.40;17.90;;;;;;;;;;5073544;28;20040;-77
2022/03/01 03:44:19;;;;;;;30.85;17.85;;;;;;;;;;5072174;28;20029;-76
2022/03/01 03:46:45;;;;;;;34.78;17.80;;;;;;;;;;5073368;28;20028;-76
2022/03/01 03:49:11;;;;;;;29.75;18.20;;;;;;;;;;5055180;28;20028;-76
2022/03/01 03:51:37;;;;;;;37.83;18.77;;;;;;;;;;5072869;28;20032;-76
2022/03/01 03:54:03;;;;;;;33.38;18.63;;;;;;;;;;5052784;28;20041;-77
2022/03/01 03:56:29;;;;;;;36.50;19.02;;;;;;;;;;5070222;28;20025;-77
2022/03/01 03:58:57;;;;;;;31.42;18.15;;;;;;;;;;5071000;28;20055;-77
2022/03/01 04:01:24;;;;;;;34.70;18.23;;;;;;;;;;5070408;28;20485;-77
2022/03/01 04:03:51;;;;;;;33.78;17.92;;;;;;;;;;5070361;28;20067;-76
2022/03/01 04:06:17;;;;;;;39.28;18.80;;;;;;;;;;5070130;28;20045;-76
2022/03/01 04:08:43;;;;;;;36.05;19.23;;;;;;;;;;5070610;28;20024;-77
2022/03/01 04:11:09;;;;;;;33.28;17.75;;;;;;;;;;5072332;28;20043;-76
2022/03/01 04:13:35;;;;;;;34.17;18.40;;;;;;;;;;5072110;28;20572;-76
2022/03/01 04:16:01;;;;;;;31.42;18.30;;;;;;;;;;5072576;28;20264;-76
2022/03/01 04:18:27;;;;;;;38.67;17.35;;;;;;;;;;5071988;28;20032;-76
2022/03/01 04:20:53;;;;;;;34.60;18.98;;;;;;;;;;5073381;28;20036;-77
2022/03/01 04:23:19;;;;;;;35.28;17.70;;;;;;;;;;5072869;28;20016;-77
2022/03/01 04:25:46;;;;;;;34.00;18.92;;;;;;;;;;5071758;28;20054;-77
2022/03/01 04:28:12;;;;;;;35.67;17.92;;;;;;;;;;5072542;28;20062;-77
2022/03/01 04:30:38;;;;;;;30.67;17.73;;;;;;;;;;5072334;28;20489;-77
2022/03/01 04:33:04;;;;;;;31.17;17.90;;;;;;;;;;5074787;28;20046;-77
2022/03/01 04:35:30;;;;;;;32.95;18.38;;;;;;;;;;5074217;28;20478;-77
2022/03/01 04:37:56;;;;;;;30.25;17.45;;;;;;;;;;5074456;28;20100;-77
2022/03/01 04:40:22;;;;;;;31.95;17.05;;;;;;;;;;5074512;28;20107;-74
2022/03/01 04:42:49;;;;;;;32.10;18.23;;;;;;;;;;5074307;28;20401;-74
2022/03/01 04:45:16;;;;;;;32.67;18.00;;;;;;;;;;5074455;28;20102;-76
2022/03/01 04:47:42;;;;;;;32.28;17.13;;;;;;;;;;5073842;28;20063;-77
2022/03/01 04:50:09;;;;;;;34.28;17.67;;;;;;;;;;5076690;28;20036;-76
2022/03/01 04:52:35;;;;;;;35.28;19.13;;;;;;;;;;5075922;28;20105;-77
2022/03/01 04:55:01;;;;;;;32.75;17.65;;;;;;;;;;5075964;28;20025;-75
2022/03/01 04:57:27;;;;;;;74.30;21.30;;;;;;;;;;5075948;28;20035;-75
2022/03/01 04:59:53;;;;;;;31.55;17.58;;;;;;;;;;5076313;28;20012;-75
2022/03/01 05:02:19;;;;;;;33.35;18.20;;;;;;;;;;5076227;28;20028;-78
2022/03/01 05:04:45;;;;;;;32.40;17.58;;;;;;;;;;5075761;28;20111;-76
2022/03/01 05:07:11;;;;;;;33.28;17.55;;;;;;;;;;5076013;28;20044;-76
2022/03/01 05:09:37;;;;;;;30.80;17.05;;;;;;;;;;5075806;28;20078;-76
2022/03/01 05:12:03;;;;;;;32.13;18.25;;;;;;;;;;5073820;28;20033;-76
2022/03/01 05:14:29;;;;;;;30.83;17.63;;;;;;;;;;5074164;28;20111;-76
2022/03/01 05:16:55;;;;;;;34.83;17.65;;;;;;;;;;5073696;28;20040;-76
2022/03/01 05:19:22;;;;;;;26.75;16.25;;;;;;;;;;5073846;28;20029;-75
2022/03/01 05:21:48;;;;;;;32.90;18.48;;;;;;;;;;5073863;28;20517;-77
2022/03/01 05:24:14;;;;;;;36.22;19.05;;;;;;;;;;5073837;28;20029;-77
2022/03/01 05:26:40;;;;;;;28.58;16.58;;;;;;;;;;5074308;28;20036;-76
2022/03/01 05:29:07;;;;;;;32.25;17.42;;;;;;;;;;5074869;28;20465;-77
2022/03/01 05:31:34;;;;;;;33.70;17.48;;;;;;;;;;5076550;28;20484;-77
2022/03/01 05:34:00;;;;;;;31.10;18.10;;;;;;;;;;5075263;28;20020;-77
2022/03/01 05:36:26;;;;;;;29.98;17.63;;;;;;;;;;5075319;28;20036;-76
2022/03/01 05:38:52;;;;;;;31.90;16.95;;;;;;;;;;5074958;28;20032;-76
2022/03/01 05:41:19;;;;;;;33.92;17.63;;;;;;;;;;5074889;28;20034;-76
2022/03/01 05:43:45;;;;;;;30.50;17.25;;;;;;;;;;5075381;28;20032;-77
2022/03/01 05:46:11;;;;;;;33.00;17.45;;;;;;;;;;5074238;28;20072;-76
2022/03/01 05:48:37;;;;;;;34.35;17.38;;;;;;;;;;5073105;28;20040;-76
2022/03/01 05:51:04;;;;;;;34.97;16.67;;;;;;;;;;5073144;28;20450;-76
2022/03/01 05:53:30;;;;;;;31.58;16.67;;;;;;;;;;5054673;28;20048;-78
2022/03/01 05:55:56;;;;;;;30.17;16.95;;;;;;;;;;5073243;28;20123;-75
2022/03/01 05:58:22;;;;;;;28.92;17.15;;;;;;;;;;5055168;28;20023;-77
2022/03/01 06:00:48;;;;;;;32.22;17.85;;;;;;;;;;5073284;28;20342;-77
2022/03/01 06:03:15;;;;;;;31.58;17.85;;;;;;;;;;5073320;28;20097;-77
2022/03/01 06:05:41;;;;;;;30.17;17.50;;;;;;;;;;5075170;28;20041;-76
2022/03/01 06:08:07;;;;;;;38.20;17.83;;;;;;;;;;5073842;28;20041;-77
2022/03/01 06:10:33;;;;;;;36.22;18.08;;;;;;;;;;5075196;28;20108;-77
2022/03/01 06:12:59;;;;;;;28.55;16.67;;;;;;;;;;5075316;28;20025;-76
2022/03/01 06:15:25;;;;;;;31.48;17.08;;;;;;;;;;5074531;28;20033;-77
2022/03/01 06:17:51;;;;;;;36.80;17.88;;;;;;;;;;5075054;28;20079;-76
2022/03/01 06:20:17;;;;;;;31.58;17.83;;;;;;;;;;5074143;28;20477;-77
2022/03/01 06:22:44;;;;;;;35.67;17.90;;;;;;;;;;5074593;28;20024;-77
2022/03/01 06:25:11;;;;;;;36.60;17.25;;;;;;;;;;5073004;28;20029;-77
2022/03/01 06:27:38;;;;;;;30.20;17.42;;;;;;;;;;5072453;28;20027;-77
2022/03/01 06:30:05;;;;;;;31.23;17.27;;;;;;;;;;5072589;28;20025;-76
2022/03/01 06:32:31;;;;;;;32.70;17.08;;;;;;;;;;5072636;28;20451;-76
2022/03/01 06:34:57;;;;;;;30.05;16.52;;;;;;;;;;5072546;28;20040;-75
2022/03/01 06:37:23;;;;;;;30.73;17.10;;;;;;;;;;5072042;28;20033;-75
2022/03/01 06:39:50;;;;;;;29.27;17.38;;;;;;;;;;5072996;28;20013;-76
2022/03/01 06:42:17;;;;;;;33.10;17.25;;;;;;;;;;5074001;28;20032;-76
2022/03/01 06:44:43;;;;;;;30.23;17.60;;;;;;;;;;5074469;28;20024;-75
2022/03/01 06:47:09;;;;;;;29.10;17.75;;;;;;;;;;5073472;28;20103;-76
2022/03/01 06:49:35;;;;;;;33.53;17.45;;;;;;;;;;5073837;28;20549;-76
2022/03/01 06:52:02;;;;;;;31.15;16.95;;;;;;;;;;5074040;28;20046;-76
2022/03/01 06:54:28;;;;;;;32.67;16.83;;;;;;;;;;5072746;28;20036;-76
2022/03/01 06:56:54;;;;;;;31.35;18.13;;;;;;;;;;5056049;28;20033;-76
2022/03/01 06:59:20;;;;;;;33.30;16.25;;;;;;;;;;5073348;28;20028;-76
2022/03/01 07:01:46;;;;;;;33.90;16.92;;;;;;;;;;5073295;28;20040;-76
2022/03/01 07:04:12;;;;;;;30.67;16.65;;;;;;;;;;5071691;28;20064;-76
2022/03/01 07:06:38;;;;;;;32.67;17.73;;;;;;;;;;5071009;28;20525;-77
2022/03/01 07:09:04;;;;;;;32.08;17.42;;;;;;;;;;5071659;28;20466;-77
2022/03/01 07:11:30;;;;;;;28.67;16.50;;;;;;;;;;5071283;28;20021;-77
2022/03/01 07:13:56;;;;;;;26.33;16.50;;;;;;;;;;5071511;28;20059;-77
2022/03/01 07:16:22;;;;;;;29.00;16.30;;;;;;;;;;5070975;28;20029;-77
2022/03/01 07:18:48;;;;;;;31.70;15.98;;;;;;;;;;5071375;28;20043;-77
2022/03/01 07:21:14;;;;;;;30.55;17.20;;;;;;;;;;5054669;28;20028;-76
2022/03/01 07:23:41;;;;;;;33.30;17.77;;;;;;;;;;5073536;28;20029;-77
2022/03/01 07:26:07;;;;;;;28.67;16.50;;;;;;;;;;5073511;28;20057;-76
2022/03/01 07:28:34;;;;;;;28.88;16.42;;;;;;;;;;5072918;28;20446;-76
2022/03/01 07:31:01;;;;;;;24.48;15.38;;;;;;;;;;5073842;28;20024;-76
2022/03/01 07:33:27;;;;;;;29.00;15.77;;;;;;;;;;5072816;28;20039;-76
2022/03/01 07:35:53;;;;;;;29.75;15.68;;;;;;;;;;5073503;28;20464;-76
2022/03/01 07:38:19;;;;;;;27.33;15.82;;;;;;;;;;5072554;28;20021;-76
2022/03/01 07:40:45;;;;;;;27.83;14.93;;;;;;;;;;5071905;28;20033;-76
2022/03/01 07:43:11;;;;;;;27.15;15.20;;;;;;;;;;5071414;28;20032;-76
2022/03/01 07:45:37;;;;;;;27.15;15.45;;;;;;;;;;5071125;28;20032;-76
2022/03/01 07:48:04;;;;;;;34.03;16.25;;;;;;;;;;5070648;28;20178;-76
2022/03/01 07:50:31;;;;;;;29.60;16.77;;;;;;;;;;5071223;28;20115;-76
2022/03/01 07:52:57;;;;;;;29.80;19.25;;;;;;;;;;5071430;28;20111;-76
2022/03/01 07:55:23;;;;;;;27.15;15.82;;;;;;;;;;5070763;28;20048;-76
2022/03/01 07:57:49;;;;;;;30.67;15.60;;;;;;;;;;5071718;28;20024;-77
2022/03/01 08:00:16;;;;;;;30.35;16.30;;;;;;;;;;5073136;28;20357;-77
2022/03/01 08:02:43;;;;;;;25.60;15.68;;;;;;;;;;5072690;28;20490;-77
2022/03/01 08:05:10;;;;;;;25.42;14.93;;;;;;;;;;5072905;28;20112;-77
2022/03/01 08:07:36;;;;;;;26.65;15.95;;;;;;;;;;5071707;28;20052;-77
2022/03/01 08:10:03;;;;;;;32.28;15.77;;;;;;;;;;5073505;28;20088;-77
2022/03/01 08:12:29;;;;;;;30.92;15.98;;;;;;;;;;5071948;28;20103;-77
2022/03/01 08:14:55;;;;;;;29.77;16.08;;;;;;;;;;5072584;28;20060;-77
2022/03/01 08:17:22;;;;;;;27.15;15.85;;;;;;;;;;5072066;28;20053;-77
2022/03/01 08:19:48;;;;;;;27.15;15.90;;;;;;;;;;5070200;28;20024;-77
2022/03/01 08:22:14;;;;;;;27.67;15.50;;;;;;;;;;5052189;28;20458;-75
2022/03/01 08:24:40;;;;;;;30.10;15.90;;;;;;;;;;5070860;28;20407;-75
2022/03/01 08:27:06;;;;;;;27.45;15.55;;;;;;;;;;5070020;28;20094;-76
2022/03/01 08:29:32;;;;;;;25.83;15.00;;;;;;;;;;5070055;28;20060;-76
2022/03/01 08:31:59;;;;;;;26.00;15.63;;;;;;;;;;5070015;28;20024;-78
2022/03/01 08:34:25;;;;;;;26.13;15.13;;;;;;;;;;5070338;28;20024;-77
2022/03/01 08:36:52;;;;;;;29.33;16.23;;;;;;;;;;5071407;28;20031;-76
2022/03/01 08:39:18;;;;;;;31.98;16.33;;;;;;;;;;5072378;28;20028;-76
2022/03/01 08:41:44;;;;;;;26.45;15.93;;;;;;;;;;5072082;28;21010;-77
2022/03/01 08:44:11;;;;;;;28.40;16.48;;;;;;;;;;5073125;28;20028;-76
2022/03/01 08:46:37;;;;;;;28.25;16.25;;;;;;;;;;5071612;28;20078;-76
2022/03/01 08:49:03;;;;;;;30.58;16.40;;;;;;;;;;5072584;28;20044;-76
2022/03/01 08:51:30;;;;;;;28.25;17.40;;;;;;;;;;5072937;28;20077;-76
2022/03/01 08:53:56;;;;;;;27.55;16.92;;;;;;;;;;5072293;28;20086;-76
2022/03/01 08:56:22;;;;;;;28.20;16.55;;;;;;;;;;5072344;28;20030;-76
2022/03/01 08:58:49;;;;;;;27.05;16.52;;;;;;;;;;5070900;28;20170;-77
2022/03/01 09:01:15;;;;;;;28.98;17.00;;;;;;;;;;5070294;28;20040;-77
2022/03/01 09:03:43;;;;;;;30.73;17.05;;;;;;;;;;5070315;28;20025;-77
2022/03/01 09:06:09;;;;;;;32.72;17.00;;;;;;;;;;5069962;28;20068;-77
2022/03/01 09:08:39;;;;;;;29.55;17.38;;;;;;;;;;5070040;28;20154;-77
2022/03/01 09:11:05;;;;;;;32.55;16.88;;;;;;;;;;5070294;28;20044;-76
2022/03/01 09:13:31;;;;;;;31.15;17.40;;;;;;;;;;5070181;28;20025;-75
2022/03/01 09:15:58;;;;;;;29.35;17.42;;;;;;;;;;5071171;28;20547;-76
2022/03/01 09:18:24;;;;;;;30.13;17.27;;;;;;;;;;5076032;28;20024;-76
2022/03/01 09:20:50;;;;;;;29.35;16.63;;;;;;;;;;5075752;28;20561;-76
2022/03/01 09:23:17;;;;;;;32.38;18.02;;;;;;;;;;5075759;28;20547;-77
2022/03/01 09:25:43;;;;;;;35.10;17.92;;;;;;;;;;5076581;28;20462;-76
2022/03/01 09:28:10;;;;;;;33.22;18.15;;;;;;;;;;5075375;28;20478;-78
2022/03/01 09:30:36;;;;;;;30.80;17.55;;;;;;;;;;5076185;28;20025;-77
2022/03/01 09:33:03;;;;;;;34.63;17.73;;;;;;;;;;5075133;28;20044;-77
2022/03/01 09:35:29;;;;;;;34.40;18.38;;;;;;;;;;5074744;28;20028;-76
2022/03/01 09:37:55;;;;;;;39.85;18.58;;;;;;;;;;5072875;28;20504;-77
2022/03/01 09:40:21;;;;;;;28.73;17.10;;;;;;;;;;5072981;28;20474;-76
2022/03/01 09:42:47;;;;;;;35.63;18.45;;;;;;;;;;5072853;28;20029;-76
2022/03/01 09:45:14;;;;;;;32.10;18.90;;;;;;;;;;5054962;28;20387;-76
2022/03/01 09:47:40;;;;;;;36.35;19.00;;;;;;;;;;5072897;28;20024;-75
2022/03/01 09:50:07;;;;;;;38.15;19.25;;;;;;;;;;5072934;28;20115;-76
2022/03/01 09:52:33;;;;;;;33.28;19.77;;;;;;;;;;5073524;28;20088;-76
2022/03/01 09:54:59;;;;;;;29.83;18.10;;;;;;;;;;5074296;28;20116;-76
2022/03/01 09:57:25;;;;;;;36.17;19.17;;;;;;;;;;5074832;28;20490;-76
2022/03/01 09:59:53;;;;;;;31.27;19.85;;;;;;;;;;5075145;28;20024;-77
2022/03/01 10:02:19;;;;;;;32.50;19.30;;;;;;;;;;5074527;28;20033;-76
2022/03/01 10:04:51;;;;;;;28.92;18.25;;;;;;;;;;5075320;28;20430;-77
2022/03/01 10:07:24;;;;;;;38.92;20.75;;;;;;;;;;5074285;28;20037;-77
2022/03/01 10:09:51;;;;;;;32.85;18.98;;;;;;;;;;5075095;28;20055;-76
2022/03/01 10:12:27;;;;;;;38.78;21.15;;;;;;;;;;5074616;28;20025;-77
2022/03/01 10:15:03;;;;;;;35.95;20.55;;;;;;;;;;5054861;28;20032;-77
2022/03/01 10:17:38;;;;;;;29.33;19.08;;;;;;;;;;5073034;28;20070;-76
2022/03/01 10:20:04;;;;;;;34.90;20.70;;;;;;;;;;5072815;28;20025;-77
2022/03/01 10:22:30;;;;;;;35.50;21.42;;;;;;;;;;5072387;28;20112;-76
2022/03/01 10:25:02;;;;;;;31.35;20.13;;;;;;;;;;5073007;28;20033;-77
2022/03/01 10:27:29;;;;;;;34.83;19.55;;;;;;;;;;5072577;28;20036;-77
2022/03/01 10:29:55;;;;;;;37.53;21.25;;;;;;;;;;5072462;28;20031;-77
2022/03/01 10:32:21;;;;;;;39.08;20.90;;;;;;;;;;5074779;28;20028;-76
2022/03/01 10:35:00;;;;;;;37.63;20.17;;;;;;;;;;5056528;28;20032;-78
2022/03/01 10:37:31;;;;;;;40.08;22.15;;;;;;;;;;5074784;28;20029;-78
2022/03/01 10:40:16;;;;;;;34.20;21.25;;;;;;;;;;5074924;28;20125;-76
2022/03/01 10:42:43;;;;;;;35.05;20.23;;;;;;;;;;5075090;28;20032;-76
2022/03/01 10:45:12;;;;;;;34.63;20.77;;;;;;;;;;5074350;28;20028;-80
2022/03/01 10:47:38;;;;;;;36.75;22.25;;;;;;;;;;5074975;28;20039;-78
2022/03/01 10:50:10;;;;;;;37.63;22.48;;;;;;;;;;5073760;28;20398;-79
2022/03/01 10:52:39;;;;;;;38.78;22.48;;;;;;;;;;5071866;28;20024;-78
2022/03/01 10:55:05;;;;;;;37.13;22.20;;;;;;;;;;5071979;28;20032;-78
2022/03/01 10:57:31;;;;;;;49.58;25.05;;;;;;;;;;5072158;28;20028;-79
2022/03/01 10:59:57;;;;;;;37.03;22.42;;;;;;;;;;5071437;28;20025;-80
2022/03/01 11:02:23;;;;;;;37.65;23.05;;;;;;;;;;5071683;28;20111;-81
2022/03/01 11:04:51;;;;;;;37.75;22.98;;;;;;;;;;5072252;28;20162;-81
2022/03/01 11:07:19;;;;;;;41.17;22.58;;;;;;;;;;5053697;28;20040;-82
2022/03/01 11:09:46;;;;;;;39.28;22.25;;;;;;;;;;5073728;28;20021;-81
2022/03/01 11:12:12;;;;;;;41.08;23.45;;;;;;;;;;5073947;28;20029;-82
2022/03/01 11:15:03;;;;;;;35.55;22.88;;;;;;;;;;5073349;28;20024;-81
2022/03/01 11:17:38;;;;;;;37.80;24.13;;;;;;;;;;5073026;28;20177;-80
2022/03/01 11:20:10;;;;;;;36.47;22.92;;;;;;;;;;5073721;28;20064;-80
2022/03/01 11:22:42;;;;;;;37.72;23.55;;;;;;;;;;5074182;28;20025;-80
2022/03/01 11:25:17;;;;;;;36.80;22.20;;;;;;;;;;5073408;28;20028;-78
2022/03/01 11:27:44;;;;;;;36.75;22.88;;;;;;;;;;5074193;28;20028;-80
2022/03/01 11:30:11;;;;;;;34.40;22.20;;;;;;;;;;5071815;28;20029;-79
2022/03/01 11:32:39;;;;;;;37.80;23.25;;;;;;;;;;5053926;28;20024;-79
2022/03/01 11:35:05;;;;;;;38.55;23.77;;;;;;;;;;5054214;28;20370;-79
2022/03/01 11:37:31;;;;;;;43.22;23.25;;;;;;;;;;5071428;28;20547;-79
2022/03/01 11:39:58;;;;;;;40.03;24.08;;;;;;;;;;5071536;28;20040;-81
2022/03/01 11:42:25;;;;;;;45.13;22.92;;;;;;;;;;5071472;28;20028;-79
2022/03/01 11:44:52;;;;;;;38.47;23.38;;;;;;;;;;5071643;28;20024;-79
2022/03/01 11:47:32;;;;;;;38.75;23.45;;;;;;;;;;5072885;28;20025;-79
2022/03/01 11:50:09;;;;;;;37.88;24.95;;;;;;;;;;5073161;28;20024;-80
2022/03/01 11:52:35;;;;;;;38.17;24.38;;;;;;;;;;5073096;28;20031;-80
2022/03/01 11:55:01;;;;;;;39.03;23.92;;;;;;;;;;5073897;28;20123;-80
2022/03/01 11:57:29;;;;;;;67.20;24.40;;;;;;;;;;5072690;28;20033;-80
2022/03/01 11:59:59;;;;;;;37.88;23.30;;;;;;;;;;5056371;28;20017;-80
2022/03/01 12:02:26;;;;;;;37.72;23.70;;;;;;;;;;5073336;28;20021;-80
2022/03/01 12:04:55;;;;;;;34.58;22.58;;;;;;;;;;5072539;28;20055;-80
2022/03/01 12:07:25;;;;;;;37.50;23.95;;;;;;;;;;5072893;28;20044;-82
2022/03/01 12:10:05;;;;;;;35.63;22.88;;;;;;;;;;5071256;28;20039;-79
2022/03/01 12:12:33;;;;;;;37.92;23.77;;;;;;;;;;5070327;28;20073;-80
2022/03/01 12:14:59;;;;;;;37.42;22.90;;;;;;;;;;5070268;28;20035;-78
2022/03/01 12:17:25;;;;;;;39.47;23.23;;;;;;;;;;5070328;28;20033;-80
2022/03/01 12:20:01;;;;;;;43.05;24.27;;;;;;;;;;5070415;28;20158;-80
2022/03/01 12:22:27;;;;;;;39.72;24.45;;;;;;;;;;5070342;28;20025;-79
2022/03/01 12:24:56;;;;;;;37.47;23.30;;;;;;;;;;5052625;28;20111;-81
2022/03/01 12:27:22;;;;;;;36.15;22.15;;;;;;;;;;5052529;28;20071;-80
2022/03/01 12:29:51;;;;;;;38.42;22.70;;;;;;;;;;5071429;28;20083;-80
2022/03/01 12:32:19;;;;;;;43.72;25.77;;;;;;;;;;5072907;28;20032;-80
2022/03/01 12:34:46;;;;;;;37.63;23.83;;;;;;;;;;5072922;28;20112;-80
2022/03/01 12:37:20;;;;;;;42.58;23.92;;;;;;;;;;5072089;28;20146;-81
2022/03/01 12:39:46;;;;;;;42.35;25.10;;;;;;;;;;5073023;28;20025;-81
2022/03/01 12:42:12;;;;;;;39.08;24.35;;;;;;;;;;5071746;28;20035;-80
2022/03/01 12:44:38;;;;;;;35.90;22.40;;;;;;;;;;5073445;28;20120;-81
2022/03/01 12:47:08;;;;;;;40.63;24.70;;;;;;;;;;5073303;28;20040;-80
2022/03/01 12:49:37;;;;;;;39.92;23.80;;;;;;;;;;5072715;28;20481;-79
2022/03/01 12:52:04;;;;;;;40.55;23.13;;;;;;;;;;5073950;28;20035;-81
2022/03/01 12:54:31;;;;;;;35.92;22.60;;;;;;;;;;5074961;28;20023;-79
2022/03/01 12:56:58;;;;;;;35.60;23.58;;;;;;;;;;5074658;28;20032;-80
2022/03/01 12:59:29;;;;;;;37.95;22.67;;;;;;;;;;5075046;28;20028;-81
2022/03/01 13:01:56;;;;;;;35.63;23.02;;;;;;;;;;5074696;28;20035;-79
2022/03/01 13:04:29;;;;;;;35.83;22.85;;;;;;;;;;5075119;28;20088;-80
2022/03/01 13:06:56;;;;;;;40.03;25.05;;;;;;;;;;5074320;28;20040;-80
2022/03/01 13:09:22;;;;;;;36.92;23.52;;;;;;;;;;5074550;28;20044;-79
2022/03/01 13:11:49;;;;;;;36.75;22.77;;;;;;;;;;5075771;28;20103;-81
2022/03/01 13:14:21;;;;;;;35.85;21.88;;;;;;;;;;5076959;28;20021;-81
2022/03/01 13:16:48;;;;;;;41.30;23.80;;;;;;;;;;5076933;28;20033;-80
2022/03/01 13:19:15;;;;;;;39.45;22.50;;;;;;;;;;5076123;28;20056;-81
2022/03/01 13:21:46;;;;;;;36.50;24.65;;;;;;;;;;5076003;28;20056;-80
2022/03/01 13:24:12;;;;;;;41.63;23.67;;;;;;;;;;5076215;28;20040;-80
2022/03/01 13:26:39;;;;;;;42.85;25.27;;;;;;;;;;5075705;28;20393;-81
2022/03/01 13:29:08;;;;;;;39.42;23.70;;;;;;;;;;5076044;28;20195;-80
2022/03/01 13:31:34;;;;;;;41.00;23.85;;;;;;;;;;5075229;28;20021;-81
2022/03/01 13:34:00;;;;;;;38.55;25.00;;;;;;;;;;5075671;28;20470;-80
2022/03/01 13:36:28;;;;;;;38.08;23.25;;;;;;;;;;5074110;28;20401;-81
2022/03/01 13:39:08;;;;;;;36.30;23.52;;;;;;;;;;5056013;28;20475;-80
2022/03/01 13:41:35;;;;;;;37.83;24.02;;;;;;;;;;5055921;28;20032;-79
2022/03/01 13:44:12;;;;;;;41.85;24.88;;;;;;;;;;5073611;28;20027;-80
2022/03/01 13:46:38;;;;;;;39.67;23.63;;;;;;;;;;5073431;28;20043;-80
2022/03/01 13:49:08;;;;;;;35.65;22.77;;;;;;;;;;5073703;28;20032;-82
2022/03/01 13:51:36;;;;;;;36.37;23.10;;;;;;;;;;5073970;28;20048;-80
2022/03/01 13:54:08;;;;;;;38.45;24.55;;;;;;;;;;5074961;28;20267;-82
2022/03/01 13:56:34;;;;;;;42.83;24.20;;;;;;;;;;5075852;28;20028;-81
2022/03/01 13:59:03;;;;;;;48.30;27.48;;;;;;;;;;5075377;28;20502;-81
2022/03/01 14:01:29;;;;;;;41.08;24.05;;;;;;;;;;5057847;28;20040;-80
2022/03/01 14:04:05;;;;;;;40.22;23.48;;;;;;;;;;5057567;28;20043;-82
2022/03/01 14:06:32;;;;;;;37.22;23.48;;;;;;;;;;5074838;28;20044;-81
2022/03/01 14:08:59;;;;;;;46.97;26.92;;;;;;;;;;5075899;28;20031;-80
2022/03/01 14:11:25;;;;;;;39.00;23.88;;;;;;;;;;5075260;28;20482;-81
2022/03/01 14:13:52;;;;;;;37.33;23.42;;;;;;;;;;5075785;28;20025;-81
2022/03/01 14:16:24;;;;;;;38.75;23.23;;;;;;;;;;5075176;28;20032;-82